createdAt,value
2022-10-11T00:00:32.394Z,22.76
2022-10-11T00:01:36.570Z,22.49
2022-10-11T00:02:40.862Z,22.28
2022-10-11T00:03:44.979Z,22.14
2022-10-11T00:04:49.105Z,22.07
2022-10-11T00:05:53.186Z,22.02
2022-10-11T00:06:57.307Z,22
2022-10-11T00:08:01.408Z,22.04
2022-10-11T00:09:05.506Z,22.2
2022-10-11T00:10:09.630Z,22.27
2022-10-11T00:11:13.758Z,22.27
2022-10-11T00:12:17.838Z,22.3
2022-10-11T00:13:21.944Z,22.29
2022-10-11T00:14:26.039Z,22.29
2022-10-11T00:15:30.167Z,22.28
2022-10-11T00:16:34.315Z,22.33
2022-10-11T00:17:38.394Z,22.29
2022-10-11T00:18:42.478Z,22.37
2022-10-11T00:19:46.585Z,22.38
2022-10-11T00:20:50.709Z,22.39
2022-10-11T00:21:54.826Z,22.3
2022-10-11T00:22:58.905Z,22.31
2022-10-11T00:24:03.019Z,22.37
2022-10-11T00:25:07.132Z,22.29
2022-10-11T00:26:11.287Z,22.32
2022-10-11T00:27:15.381Z,22.45
2022-10-11T00:28:19.500Z,22.34
2022-10-11T00:29:23.753Z,22.43
2022-10-11T00:30:27.900Z,22.5
2022-10-11T00:31:35.470Z,22.39
2022-10-11T00:32:39.804Z,22.32
2022-10-11T00:33:43.930Z,22.22
2022-10-11T00:34:48.062Z,22.34
2022-10-11T00:35:52.192Z,22.28
2022-10-11T00:36:56.303Z,22.17
2022-10-11T00:38:00.399Z,22.18
2022-10-11T00:39:04.503Z,22.41
2022-10-11T00:40:08.690Z,22.42
2022-10-11T00:41:12.834Z,22.41
2022-10-11T00:42:16.977Z,22.32
2022-10-11T00:43:21.073Z,22.21
2022-10-11T00:44:25.208Z,22.32
2022-10-11T00:45:29.313Z,22.26
2022-10-11T00:46:33.431Z,22.26
2022-10-11T00:47:37.575Z,22.32
2022-10-11T00:48:41.692Z,22.26
2022-10-11T00:49:45.807Z,22.24
2022-10-11T00:50:49.911Z,22.2
2022-10-11T00:51:54.031Z,22.24
2022-10-11T00:52:58.183Z,22.12
2022-10-11T00:54:02.276Z,22.02
2022-10-11T00:55:06.402Z,21.97
2022-10-11T00:56:10.565Z,21.94
2022-10-11T00:57:14.683Z,21.87
2022-10-11T00:58:18.846Z,21.94
2022-10-11T00:59:22.946Z,21.93
2022-10-11T01:00:27.082Z,21.89
2022-10-11T01:01:31.234Z,21.86
2022-10-11T01:02:35.556Z,21.83
2022-10-11T01:03:39.721Z,21.83
2022-10-11T01:04:43.805Z,21.91
2022-10-11T01:05:47.902Z,21.92
2022-10-11T01:06:52.014Z,22
2022-10-11T01:07:56.142Z,22.04
2022-10-11T01:09:00.269Z,21.97
2022-10-11T01:10:04.423Z,21.92
2022-10-11T01:11:08.537Z,21.86
2022-10-11T01:12:12.651Z,21.85
2022-10-11T01:13:16.749Z,21.85
2022-10-11T01:14:20.872Z,21.81
2022-10-11T01:15:25.027Z,21.91
2022-10-11T01:16:29.164Z,21.95
2022-10-11T01:17:33.267Z,22.08
2022-10-11T01:18:37.373Z,22.29
2022-10-11T01:19:41.477Z,22.35
2022-10-11T01:20:45.583Z,22.48
2022-10-11T01:21:49.680Z,22.54
2022-10-11T01:22:53.784Z,22.59
2022-10-11T01:23:57.907Z,22.69
2022-10-11T01:25:04.935Z,22.62
2022-10-11T01:26:09.023Z,22.41
2022-10-11T01:27:13.133Z,22.35
2022-10-11T01:28:17.271Z,22.46
2022-10-11T01:29:21.593Z,22.34
2022-10-11T01:30:25.705Z,22.36
2022-10-11T01:31:29.823Z,22.53
2022-10-11T01:32:33.944Z,22.51
2022-10-11T01:33:38.050Z,22.55
2022-10-11T01:34:42.159Z,22.32
2022-10-11T01:35:46.303Z,22.17
2022-10-11T01:36:50.409Z,22.17
2022-10-11T01:37:54.522Z,22.23
2022-10-11T01:38:58.628Z,22.07
2022-10-11T01:40:02.745Z,21.95
2022-10-11T01:41:06.888Z,22.03
2022-10-11T01:42:11.015Z,22.02
2022-10-11T01:43:15.109Z,21.96
2022-10-11T01:44:19.217Z,22
2022-10-11T01:45:23.605Z,21.95
2022-10-11T01:46:27.754Z,21.98
2022-10-11T01:47:31.867Z,21.96
2022-10-11T01:48:35.967Z,21.93
2022-10-11T01:49:40.065Z,21.95
2022-10-11T01:50:44.164Z,21.94
2022-10-11T01:51:48.300Z,22.09
2022-10-11T01:52:52.424Z,22.28
2022-10-11T01:53:56.527Z,22.24
2022-10-11T01:55:16.120Z,22.31
2022-10-11T01:56:20.241Z,22.37
2022-10-11T01:57:24.564Z,22.3
2022-10-11T01:58:28.693Z,22.27
2022-10-11T01:59:32.814Z,22.18
2022-10-11T02:00:36.939Z,22.14
2022-10-11T02:01:41.132Z,22.38
2022-10-11T02:02:45.642Z,22.46
2022-10-11T02:03:49.742Z,22.39
2022-10-11T02:04:53.856Z,22.37
2022-10-11T02:05:57.935Z,22.28
2022-10-11T02:07:02.033Z,22.34
2022-10-11T02:08:06.390Z,22.39
2022-10-11T02:09:10.505Z,22.37
2022-10-11T02:10:14.618Z,22.48
2022-10-11T02:11:18.811Z,22.36
2022-10-11T02:12:22.918Z,22.25
2022-10-11T02:13:27.037Z,22.29
2022-10-11T02:14:31.157Z,22.17
2022-10-11T02:15:35.243Z,22.14
2022-10-11T02:16:39.327Z,22.05
2022-10-11T02:17:43.498Z,22.22
2022-10-11T02:18:47.579Z,22.25
2022-10-11T02:19:51.663Z,22.24
2022-10-11T02:20:55.777Z,22.1
2022-10-11T02:21:59.894Z,21.96
2022-10-11T02:23:03.999Z,21.88
2022-10-11T02:24:08.104Z,21.83
2022-10-11T02:25:12.176Z,21.79
2022-10-11T02:26:16.265Z,21.83
2022-10-11T02:27:20.369Z,21.79
2022-10-11T02:28:24.571Z,21.72
2022-10-11T02:29:29.229Z,21.72
2022-10-11T02:30:33.323Z,21.73
2022-10-11T02:31:37.400Z,21.7
2022-10-11T02:32:41.523Z,21.74
2022-10-11T02:33:45.628Z,21.73
2022-10-11T02:34:49.723Z,21.7
2022-10-11T02:35:53.802Z,21.77
2022-10-11T02:36:57.908Z,21.89
2022-10-11T02:38:01.998Z,21.86
2022-10-11T02:39:06.098Z,21.93
2022-10-11T02:40:10.182Z,21.98
2022-10-11T02:41:14.270Z,22.02
2022-10-11T02:42:18.351Z,22.05
2022-10-11T02:43:22.486Z,22.11
2022-10-11T02:44:26.600Z,22.2
2022-10-11T02:45:30.704Z,22.24
2022-10-11T02:46:34.789Z,22.35
2022-10-11T02:47:38.989Z,22.38
2022-10-11T02:48:43.138Z,22.42
2022-10-11T02:49:47.244Z,22.41
2022-10-11T02:50:51.351Z,22.38
2022-10-11T02:51:55.446Z,22.38
2022-10-11T02:52:59.521Z,22.41
2022-10-11T02:54:03.875Z,22.4
2022-10-11T02:55:07.961Z,22.36
2022-10-11T02:56:12.096Z,22.36
2022-10-11T02:57:16.215Z,22.38
2022-10-11T02:58:20.376Z,22.35
2022-10-11T02:59:24.503Z,22.33
2022-10-11T03:00:28.628Z,22.29
2022-10-11T03:01:32.763Z,22.29
2022-10-11T03:02:37.134Z,22.32
2022-10-11T03:03:41.231Z,22.32
2022-10-11T03:04:45.353Z,22.4
2022-10-11T03:05:49.440Z,22.47
2022-10-11T03:06:53.536Z,22.49
2022-10-11T03:07:57.622Z,22.58
2022-10-11T03:09:01.707Z,22.57
2022-10-11T03:10:05.912Z,22.61
2022-10-11T03:11:10.012Z,22.58
2022-10-11T03:12:14.111Z,22.52
2022-10-11T03:13:18.559Z,22.53
2022-10-11T03:14:22.818Z,22.51
2022-10-11T03:15:26.935Z,22.5
2022-10-11T03:16:31.028Z,22.49
2022-10-11T03:17:36.815Z,22.45
2022-10-11T03:18:41.241Z,22.47
2022-10-11T03:19:45.358Z,22.44
2022-10-11T03:20:49.482Z,22.38
2022-10-11T03:21:53.579Z,22.42
2022-10-11T03:22:57.680Z,22.42
2022-10-11T03:24:01.757Z,22.44
2022-10-11T03:25:05.842Z,22.49
2022-10-11T03:26:09.955Z,22.55
2022-10-11T03:27:14.048Z,22.62
2022-10-11T03:28:18.190Z,22.65
2022-10-11T03:29:22.550Z,22.67
2022-10-11T03:30:26.638Z,22.65
2022-10-11T03:31:30.775Z,22.68
2022-10-11T03:32:35.193Z,22.69
2022-10-11T03:33:39.303Z,22.64
2022-10-11T03:34:43.408Z,22.59
2022-10-11T03:35:47.563Z,22.61
2022-10-11T03:36:51.694Z,22.56
2022-10-11T03:37:55.830Z,22.56
2022-10-11T03:38:59.926Z,22.54
2022-10-11T03:40:04.044Z,22.53
2022-10-11T03:41:08.167Z,22.51
2022-10-11T03:42:12.313Z,22.5
2022-10-11T03:43:16.431Z,22.45
2022-10-11T03:44:20.555Z,22.43
2022-10-11T03:45:24.658Z,22.41
2022-10-11T03:46:28.765Z,22.42
2022-10-11T03:47:33.235Z,22.4
2022-10-11T03:48:37.343Z,22.38
2022-10-11T03:49:43.706Z,22.33
2022-10-11T03:50:47.974Z,22.31
2022-10-11T03:51:52.107Z,22.34
2022-10-11T03:52:56.223Z,22.33
2022-10-11T03:54:00.336Z,22.29
2022-10-11T03:55:04.443Z,22.29
2022-10-11T03:56:08.765Z,22.27
2022-10-11T03:57:13.827Z,22.23
2022-10-11T03:58:17.930Z,22.24
2022-10-11T03:59:22.044Z,22.24
2022-10-11T04:00:26.125Z,22.23
2022-10-11T04:01:30.317Z,22.23
2022-10-11T04:02:38.368Z,22.18
2022-10-11T04:03:43.192Z,22.18
2022-10-11T04:04:47.299Z,22.19
2022-10-11T04:05:51.402Z,22.18
2022-10-11T04:06:55.506Z,22.18
2022-10-11T04:07:59.633Z,22.16
2022-10-11T04:09:03.726Z,22.16
2022-10-11T04:10:07.852Z,22.15
2022-10-11T04:11:11.947Z,22.15
2022-10-11T04:12:16.071Z,22.11
2022-10-11T04:13:20.212Z,22.13
2022-10-11T04:14:24.333Z,22.13
2022-10-11T04:15:28.436Z,22.12
2022-10-11T04:16:32.545Z,22.12
2022-10-11T04:17:36.668Z,22.08
2022-10-11T04:18:40.801Z,22.09
2022-10-11T04:19:44.948Z,22.08
2022-10-11T04:20:49.043Z,22.07
2022-10-11T04:21:53.134Z,22.05
2022-10-11T04:22:57.314Z,22.07
2022-10-11T04:24:01.416Z,22.08
2022-10-11T04:25:05.560Z,22.08
2022-10-11T04:26:09.670Z,22.06
2022-10-11T04:27:13.764Z,22.04
2022-10-11T04:28:17.910Z,22.03
2022-10-11T04:29:22.266Z,22.06
2022-10-11T04:30:28.895Z,22.07
2022-10-11T04:31:33.427Z,22.05
2022-10-11T04:32:37.548Z,22
2022-10-11T04:33:41.641Z,22.08
2022-10-11T04:34:45.750Z,22.07
2022-10-11T04:35:49.885Z,22.17
2022-10-11T04:36:53.976Z,22.16
2022-10-11T04:37:58.064Z,22.14
2022-10-11T04:39:02.190Z,22.27
2022-10-11T04:40:06.294Z,22.2
2022-10-11T04:41:10.408Z,22.12
2022-10-11T04:42:14.492Z,22.05
2022-10-11T04:43:18.594Z,21.99
2022-10-11T04:44:22.721Z,21.91
2022-10-11T04:45:26.815Z,21.92
2022-10-11T04:46:30.944Z,21.93
2022-10-11T04:47:35.039Z,21.88
2022-10-11T04:48:39.143Z,21.94
2022-10-11T04:49:43.276Z,21.93
2022-10-11T04:50:49.192Z,21.89
2022-10-11T04:51:53.305Z,21.85
2022-10-11T04:52:57.413Z,21.84
2022-10-11T04:54:01.527Z,21.86
2022-10-11T04:55:05.642Z,21.86
2022-10-11T04:56:10.103Z,21.85
2022-10-11T04:57:14.361Z,21.82
2022-10-11T04:58:18.499Z,21.85
2022-10-11T04:59:22.622Z,21.87
2022-10-11T05:00:26.758Z,22.01
2022-10-11T05:01:30.892Z,22.07
2022-10-11T05:02:35.279Z,22.17
2022-10-11T05:03:39.393Z,22.09
2022-10-11T05:04:43.537Z,22.11
2022-10-11T05:05:47.697Z,22.08
2022-10-11T05:06:51.789Z,21.97
2022-10-11T05:07:55.882Z,21.98
2022-10-11T05:09:00.021Z,22.09
2022-10-11T05:10:04.135Z,21.72
2022-10-11T05:11:08.221Z,22.03
2022-10-11T05:12:12.337Z,22.22
2022-10-11T05:13:16.472Z,22.35
2022-10-11T05:14:20.585Z,22.2
2022-10-11T05:15:24.696Z,22.36
2022-10-11T05:16:28.802Z,22.38
2022-10-11T05:17:32.919Z,22.26
2022-10-11T05:18:37.066Z,22.29
2022-10-11T05:19:41.187Z,22.38
2022-10-11T05:20:45.277Z,22.4
2022-10-11T05:21:49.407Z,22.34
2022-10-11T05:22:53.527Z,22.41
2022-10-11T05:23:57.701Z,22.41
2022-10-11T05:25:01.841Z,22.36
2022-10-11T05:26:06.320Z,22.35
2022-10-11T05:27:12.031Z,22.37
2022-10-11T05:28:16.213Z,22.43
2022-10-11T05:29:20.558Z,22.41
2022-10-11T05:30:24.660Z,22.4
2022-10-11T05:31:28.763Z,22.38
2022-10-11T05:32:32.881Z,22.35
2022-10-11T05:33:37.014Z,22.41
2022-10-11T05:34:41.171Z,22.37
2022-10-11T05:35:45.264Z,22.27
2022-10-11T05:36:49.391Z,22.38
2022-10-11T05:37:53.506Z,22.38
2022-10-11T05:38:57.617Z,22.39
2022-10-11T05:40:01.719Z,22.23
2022-10-11T05:41:05.829Z,22.25
2022-10-11T05:42:10.206Z,22.36
2022-10-11T05:43:14.329Z,22.36
2022-10-11T05:44:18.426Z,22.33
2022-10-11T05:45:22.521Z,22.14
2022-10-11T05:46:26.606Z,22
2022-10-11T05:47:30.741Z,21.99
2022-10-11T05:48:34.841Z,21.97
2022-10-11T05:49:38.942Z,21.88
2022-10-11T05:50:43.055Z,21.79
2022-10-11T05:51:47.152Z,21.78
2022-10-11T05:52:51.235Z,21.74
2022-10-11T05:53:55.682Z,21.73
2022-10-11T05:54:59.795Z,21.76
2022-10-11T05:56:04.228Z,21.73
2022-10-11T05:57:09.591Z,21.85
2022-10-11T05:58:13.762Z,21.81
2022-10-11T05:59:17.888Z,21.79
2022-10-11T06:00:21.964Z,21.87
2022-10-11T06:01:26.173Z,21.8
2022-10-11T06:02:30.521Z,21.78
2022-10-11T06:03:34.626Z,21.79
2022-10-11T06:04:38.728Z,21.79
2022-10-11T06:05:42.812Z,21.71
2022-10-11T06:06:46.948Z,21.79
2022-10-11T06:07:51.048Z,21.82
2022-10-11T06:08:55.129Z,21.85
2022-10-11T06:09:59.229Z,21.77
2022-10-11T06:11:03.330Z,21.72
2022-10-11T06:12:11.393Z,21.67
2022-10-11T06:13:15.534Z,21.67
2022-10-11T06:14:19.634Z,21.64
2022-10-11T06:15:23.749Z,21.7
2022-10-11T06:16:27.863Z,21.66
2022-10-11T06:17:31.978Z,21.72
2022-10-11T06:18:36.056Z,21.76
2022-10-11T06:19:40.169Z,21.78
2022-10-11T06:20:44.273Z,21.63
2022-10-11T06:21:48.405Z,21.66
2022-10-11T06:22:52.516Z,21.65
2022-10-11T06:24:01.029Z,21.58
2022-10-11T06:25:05.383Z,21.57
2022-10-11T06:26:10.018Z,21.56
2022-10-11T06:27:14.586Z,21.52
2022-10-11T06:28:18.869Z,21.5
2022-10-11T06:29:23.192Z,21.49
2022-10-11T06:30:27.378Z,21.51
2022-10-11T06:31:31.624Z,21.52
2022-10-11T06:32:35.752Z,21.51
2022-10-11T06:33:39.883Z,21.51
2022-10-11T06:34:43.980Z,21.49
2022-10-11T06:35:48.102Z,21.46
2022-10-11T06:36:52.200Z,21.48
2022-10-11T06:37:56.303Z,21.46
2022-10-11T06:39:00.436Z,21.49
2022-10-11T06:40:04.541Z,21.46
2022-10-11T06:41:08.650Z,21.48
2022-10-11T06:42:12.763Z,21.49
2022-10-11T06:43:16.985Z,21.55
2022-10-11T06:44:21.114Z,21.54
2022-10-11T06:45:25.206Z,21.49
2022-10-11T06:46:29.302Z,21.5
2022-10-11T06:47:33.410Z,21.5
2022-10-11T06:48:37.649Z,21.49
2022-10-11T06:49:41.793Z,21.49
2022-10-11T06:50:59.390Z,21.52
2022-10-11T06:52:04.173Z,21.55
2022-10-11T06:53:08.297Z,21.49
2022-10-11T06:54:12.453Z,21.51
2022-10-11T06:55:16.708Z,21.47
2022-10-11T06:56:20.853Z,21.49
2022-10-11T06:57:24.977Z,21.48
2022-10-11T06:58:29.095Z,21.46
2022-10-11T06:59:33.220Z,21.49
2022-10-11T07:00:37.342Z,21.46
2022-10-11T07:01:41.710Z,21.48
2022-10-11T07:02:45.817Z,21.55
2022-10-11T07:03:49.936Z,21.6
2022-10-11T07:04:54.066Z,21.59
2022-10-11T07:06:02.216Z,21.54
2022-10-11T07:07:07.476Z,21.51
2022-10-11T07:08:11.596Z,21.45
2022-10-11T07:09:15.724Z,21.45
2022-10-11T07:10:19.859Z,21.45
2022-10-11T07:11:23.988Z,21.41
2022-10-11T07:12:28.079Z,21.41
2022-10-11T07:13:32.181Z,21.44
2022-10-11T07:14:36.288Z,21.41
2022-10-11T07:15:40.382Z,21.44
2022-10-11T07:16:44.528Z,21.39
2022-10-11T07:17:48.633Z,21.47
2022-10-11T07:18:55.965Z,21.5
2022-10-11T07:20:03.940Z,21.48
2022-10-11T07:21:08.085Z,21.45
2022-10-11T07:22:12.200Z,21.45
2022-10-11T07:23:16.309Z,21.6
2022-10-11T07:24:20.495Z,21.54
2022-10-11T07:25:24.805Z,21.47
2022-10-11T07:26:31.441Z,21.46
2022-10-11T07:27:41.904Z,21.39
2022-10-11T07:28:46.120Z,21.41
2022-10-11T07:29:50.600Z,21.47
2022-10-11T07:30:54.706Z,21.48
2022-10-11T07:31:58.858Z,21.43
2022-10-11T07:33:02.988Z,21.44
2022-10-11T07:34:07.142Z,21.43
2022-10-11T07:35:11.359Z,21.41
2022-10-11T07:36:15.486Z,21.39
2022-10-11T07:37:19.604Z,21.39
2022-10-11T07:38:24.103Z,21.39
2022-10-11T07:39:28.225Z,21.39
2022-10-11T07:40:32.314Z,21.39
2022-10-11T07:41:36.417Z,21.4
2022-10-11T07:42:48.310Z,21.39
2022-10-11T07:43:52.435Z,21.39
2022-10-11T07:44:56.563Z,21.35
2022-10-11T07:46:00.683Z,21.38
2022-10-11T07:47:08.996Z,21.36
2022-10-11T07:48:15.093Z,21.4
2022-10-11T07:49:19.220Z,21.4
2022-10-11T07:50:23.418Z,21.39
2022-10-11T07:51:27.588Z,21.4
2022-10-11T07:52:31.701Z,21.39
2022-10-11T07:53:35.798Z,21.38
2022-10-11T07:54:39.983Z,21.37
2022-10-11T07:55:44.112Z,21.39
2022-10-11T07:56:48.202Z,21.41
2022-10-11T07:57:52.309Z,21.42
2022-10-11T07:58:56.852Z,21.41
2022-10-11T08:00:01.028Z,21.1
2022-10-11T08:01:05.235Z,21.36
2022-10-11T08:02:09.525Z,21.39
2022-10-11T08:03:13.693Z,21.38
2022-10-11T08:04:17.861Z,21.39
2022-10-11T08:05:21.985Z,21.39
2022-10-11T08:06:26.115Z,21.38
2022-10-11T08:07:30.283Z,21.38
2022-10-11T08:08:34.600Z,21.34
2022-10-11T08:09:38.734Z,21.37
2022-10-11T08:10:42.908Z,21.37
2022-10-11T08:11:47.410Z,21.37
2022-10-11T08:12:51.539Z,21.35
2022-10-11T08:13:56.014Z,21.38
2022-10-11T08:54:50.530Z,21.29
2022-10-11T08:55:54.667Z,21.31
2022-10-11T08:56:58.789Z,21.31
2022-10-11T08:58:02.883Z,21.31
2022-10-11T08:59:16.116Z,21.27
2022-10-11T09:00:46.974Z,21.26
2022-10-11T09:01:51.191Z,21.29
2022-10-11T09:03:07.873Z,21.26
2022-10-11T09:04:13.329Z,21.3
2022-10-11T09:05:17.450Z,21.27
2022-10-11T09:06:21.543Z,21.33
2022-10-11T09:07:25.654Z,21.4
2022-10-11T09:08:29.754Z,21.44
2022-10-11T09:09:33.854Z,21.64
2022-10-11T09:10:37.967Z,21.71
2022-10-11T09:11:42.055Z,21.79
2022-10-11T09:12:46.166Z,21.8
2022-10-11T09:13:50.265Z,21.74
2022-10-11T09:14:54.371Z,21.73
2022-10-11T09:15:58.477Z,21.65
2022-10-11T09:17:02.595Z,21.6
2022-10-11T09:18:06.719Z,21.52
2022-10-11T09:19:10.863Z,21.5
2022-10-11T09:20:15.007Z,21.43
2022-10-11T09:21:19.108Z,21.46
2022-10-11T09:22:25.757Z,21.54
2022-10-11T09:23:34.080Z,21.57
2022-10-11T09:24:38.204Z,21.56
2022-10-11T09:25:42.320Z,21.63
2022-10-11T09:26:46.472Z,21.75
2022-10-11T09:28:02.122Z,21.76
2022-10-11T09:29:07.350Z,21.68
2022-10-11T09:30:11.798Z,21.65
2022-10-11T09:31:15.976Z,21.65
2022-10-11T09:32:20.106Z,21.74
2022-10-11T09:33:24.230Z,21.82
2022-10-11T09:34:28.353Z,21.89
2022-10-11T09:35:32.470Z,21.95
2022-10-11T09:36:36.586Z,21.87
2022-10-11T09:37:40.697Z,21.73
2022-10-11T09:38:44.820Z,21.6
2022-10-11T09:39:48.931Z,21.58
2022-10-11T09:40:53.042Z,21.51
2022-10-11T09:41:59.409Z,21.47
2022-10-11T09:43:03.523Z,21.47
2022-10-11T09:44:07.651Z,21.14
2022-10-11T09:45:11.755Z,21.43
2022-10-11T09:46:15.869Z,21.44
2022-10-11T09:47:20.011Z,21.43
2022-10-11T09:48:24.121Z,21.41
2022-10-11T09:49:28.235Z,21.42
2022-10-11T09:50:32.348Z,21.45
2022-10-11T09:51:36.456Z,21.4
2022-10-11T09:52:41.019Z,21.45
2022-10-11T09:53:45.151Z,21.41
2022-10-11T09:54:49.252Z,21.42
2022-10-11T09:55:53.427Z,21.42
2022-10-11T09:56:57.573Z,21.45
2022-10-11T09:58:01.695Z,21.41
2022-10-11T09:59:05.842Z,21.43
2022-10-11T10:00:10.174Z,21.41
2022-10-11T10:01:14.277Z,21.48
2022-10-11T10:02:18.544Z,21.45
2022-10-11T10:03:22.685Z,21.46
2022-10-11T10:04:28.380Z,21.43
2022-10-11T10:05:39.875Z,21.41
2022-10-11T10:06:43.976Z,21.41
2022-10-11T10:07:48.100Z,21.41
2022-10-11T10:08:52.216Z,21.45
2022-10-11T10:09:56.306Z,21.44
2022-10-11T10:11:00.423Z,21.39
2022-10-11T10:12:04.518Z,21.41
2022-10-11T10:13:08.634Z,21.41
2022-10-11T10:14:12.728Z,21.42
2022-10-11T10:15:16.845Z,21.44
2022-10-11T10:16:21.217Z,21.43
2022-10-11T10:17:25.354Z,21.43
2022-10-11T10:18:29.439Z,21.43
2022-10-11T10:19:33.665Z,21.42
2022-10-11T10:20:37.800Z,21.38
2022-10-11T10:21:41.905Z,21.41
2022-10-11T10:22:46.044Z,21.4
2022-10-11T10:23:50.174Z,21.37
2022-10-11T10:24:54.310Z,21.42
2022-10-11T10:25:58.446Z,21.39
2022-10-11T10:27:02.566Z,21.39
2022-10-11T10:28:06.645Z,21.38
2022-10-11T10:29:10.968Z,21.39
2022-10-11T10:30:15.086Z,21.38
2022-10-11T10:31:19.389Z,21.42
2022-10-11T10:32:23.494Z,21.44
2022-10-11T10:33:28.530Z,21.45
2022-10-11T10:34:32.615Z,21.44
2022-10-11T10:35:36.719Z,21.43
2022-10-11T10:36:40.812Z,21.42
2022-10-11T10:37:44.918Z,21.42
2022-10-11T10:38:52.364Z,21.42
2022-10-11T10:39:57.994Z,21.36
2022-10-11T10:41:02.145Z,21.39
2022-10-11T10:42:06.276Z,21.38
2022-10-11T10:43:10.407Z,21.42
2022-10-11T10:44:14.518Z,21.41
2022-10-11T10:45:21.368Z,21.45
2022-10-11T10:46:25.867Z,21.49
2022-10-11T10:47:29.998Z,21.48
2022-10-11T10:49:01.927Z,21.47
2022-10-11T10:50:56.664Z,21.5
2022-10-11T10:52:00.816Z,21.53
2022-10-11T10:53:08.013Z,21.55
2022-10-11T10:54:44.932Z,21.56
2022-10-11T10:55:49.027Z,21.55
2022-10-11T10:56:56.073Z,21.55
2022-10-11T10:58:00.265Z,21.57
2022-10-11T10:59:04.391Z,21.6
2022-10-11T11:00:08.517Z,21.58
2022-10-11T11:01:12.647Z,21.59
2022-10-11T11:02:38.815Z,21.56
2022-10-11T11:03:44.832Z,21.53
2022-10-11T11:04:49.014Z,21.56
2022-10-11T11:05:53.328Z,21.56
2022-10-11T11:06:57.409Z,21.57
2022-10-11T11:08:01.682Z,21.58
2022-10-11T11:09:05.838Z,21.58
2022-10-11T11:10:09.937Z,21.56
2022-10-11T11:11:14.039Z,21.59
2022-10-11T11:12:18.164Z,21.57
2022-10-11T11:13:22.287Z,21.4
2022-10-11T11:14:26.397Z,21.58
2022-10-11T11:15:33.027Z,21.61
2022-10-11T11:16:41.511Z,21.6
2022-10-11T11:17:45.627Z,21.63
2022-10-11T11:18:49.741Z,21.63
2022-10-11T11:19:53.835Z,21.65
2022-10-11T11:20:57.955Z,21.66
2022-10-11T11:22:02.077Z,21.62
2022-10-11T11:23:06.214Z,21.65
2022-10-11T11:24:10.328Z,21.68
2022-10-11T11:25:14.483Z,21.65
2022-10-11T11:26:18.606Z,21.62
2022-10-11T11:27:22.732Z,21.68
2022-10-11T11:28:26.931Z,21.68
2022-10-11T11:29:31.282Z,21.74
2022-10-11T11:30:35.426Z,21.79
2022-10-11T11:31:39.553Z,21.81
2022-10-11T11:32:45.786Z,21.81
2022-10-11T11:33:50.026Z,21.79
2022-10-11T11:34:54.120Z,21.72
2022-10-11T11:35:58.254Z,21.72
2022-10-11T11:37:02.346Z,21.73
2022-10-11T11:38:06.732Z,21.73
2022-10-11T11:39:10.840Z,21.75
2022-10-11T11:40:14.973Z,21.73
2022-10-11T11:41:19.097Z,21.77
2022-10-11T11:42:23.231Z,21.78
2022-10-11T11:43:27.379Z,21.77
2022-10-11T11:44:31.525Z,21.74
2022-10-11T11:45:35.668Z,21.76
2022-10-11T11:46:39.753Z,21.74
2022-10-11T11:47:43.857Z,21.64
2022-10-11T11:48:47.977Z,21.7
2022-10-11T11:49:52.077Z,21.73
2022-10-11T11:50:58.883Z,21.7
2022-10-11T11:52:03.025Z,21.75
2022-10-11T11:53:07.211Z,21.73
2022-10-11T11:54:11.358Z,21.74
2022-10-11T11:55:15.461Z,21.72
2022-10-11T11:56:19.557Z,21.72
2022-10-11T11:57:23.650Z,21.72
2022-10-11T11:58:27.762Z,21.71
2022-10-11T11:59:31.893Z,21.69
2022-10-11T12:00:36.136Z,21.7
2022-10-11T12:01:43.288Z,21.69
2022-10-11T12:02:47.518Z,21.67
2022-10-11T12:03:51.640Z,21.67
2022-10-11T12:04:55.769Z,21.67
2022-10-11T12:06:00.112Z,21.67
2022-10-11T12:07:15.752Z,21.68
2022-10-11T12:08:24.195Z,21.72
2022-10-11T12:09:28.290Z,21.69
2022-10-11T12:10:33.955Z,21.72
2022-10-11T12:11:42.434Z,21.69
2022-10-11T12:12:46.536Z,21.72
2022-10-11T12:13:50.617Z,21.71
2022-10-11T12:14:54.712Z,21.76
2022-10-11T12:15:58.832Z,21.77
2022-10-11T12:17:03.025Z,21.77
2022-10-11T12:18:07.122Z,21.79
2022-10-11T12:19:11.241Z,21.79
2022-10-11T12:20:15.338Z,21.8
2022-10-11T12:21:19.444Z,21.82
2022-10-11T12:22:26.163Z,21.82
2022-10-11T12:23:30.274Z,21.79
2022-10-11T12:24:34.361Z,21.81
2022-10-11T12:25:38.442Z,21.83
2022-10-11T12:26:42.713Z,21.82
2022-10-11T12:27:47.046Z,21.8
2022-10-11T12:28:51.170Z,21.87
2022-10-11T12:29:55.554Z,21.86
2022-10-11T12:30:59.660Z,21.81
2022-10-11T12:32:03.842Z,21.85
2022-10-11T12:33:07.949Z,21.83
2022-10-11T12:34:12.044Z,21.8
2022-10-11T12:35:16.161Z,21.8
2022-10-11T12:36:20.291Z,21.8
2022-10-11T12:37:26.331Z,21.8
2022-10-11T12:38:30.721Z,21.79
2022-10-11T12:39:37.188Z,21.8
2022-10-11T12:40:41.391Z,21.81
2022-10-11T12:41:45.508Z,21.79
2022-10-11T12:42:49.641Z,21.77
2022-10-11T12:43:53.766Z,21.76
2022-10-11T12:44:58.101Z,21.8
2022-10-11T12:46:02.245Z,21.77
2022-10-11T12:47:07.290Z,21.8
2022-10-11T12:48:11.425Z,21.78
2022-10-11T12:49:15.532Z,21.79
2022-10-11T12:50:19.617Z,21.79
2022-10-11T12:51:23.738Z,21.75
2022-10-11T12:52:27.881Z,21.79
2022-10-11T12:53:32.024Z,21.83
2022-10-11T12:54:37.358Z,21.83
2022-10-11T12:55:41.593Z,21.88
2022-10-11T12:56:45.756Z,21.82
2022-10-11T12:57:49.922Z,21.83
2022-10-11T12:58:54.071Z,21.82
2022-10-11T12:59:58.434Z,21.81
2022-10-11T13:01:02.753Z,21.75
2022-10-11T13:02:09.096Z,21.74
2022-10-11T13:03:13.482Z,21.74
2022-10-11T13:04:17.611Z,21.81
2022-10-11T13:05:21.735Z,21.8
2022-10-11T13:06:25.884Z,21.84
2022-10-11T13:07:30.045Z,21.93
2022-10-11T13:08:34.186Z,21.89
2022-10-11T13:09:38.338Z,21.84
2022-10-11T13:10:44.552Z,21.83
2022-10-11T13:11:48.695Z,21.79
2022-10-11T13:12:52.834Z,21.7
2022-10-11T13:13:56.979Z,21.7
2022-10-11T13:15:01.134Z,21.64
2022-10-11T13:16:05.565Z,21.67
2022-10-11T13:17:11.121Z,21.64
2022-10-11T13:18:15.256Z,21.63
2022-10-11T13:19:19.402Z,21.66
2022-10-11T13:20:23.576Z,21.79
2022-10-11T13:21:27.736Z,21.77
2022-10-11T13:22:32.146Z,21.73
2022-10-11T13:23:36.351Z,21.6
2022-10-11T13:24:40.505Z,21.67
2022-10-11T13:25:44.696Z,21.74
2022-10-11T13:26:48.829Z,21.7
2022-10-11T13:27:52.995Z,21.76
2022-10-11T13:28:57.224Z,21.74
2022-10-11T13:30:01.543Z,21.69
2022-10-11T13:31:06.016Z,21.65
2022-10-11T13:32:11.594Z,21.59
2022-10-11T13:33:15.750Z,21.67
2022-10-11T13:34:23.608Z,21.66
2022-10-11T13:35:27.821Z,21.69
2022-10-11T13:36:31.983Z,21.66
2022-10-11T13:37:36.442Z,21.67
2022-10-11T13:38:40.923Z,21.67
2022-10-11T13:39:45.076Z,21.69
2022-10-11T13:40:51.096Z,21.72
2022-10-11T13:41:55.407Z,21.73
2022-10-11T13:42:59.598Z,21.7
2022-10-11T13:44:03.901Z,21.7
2022-10-11T13:45:08.299Z,21.74
2022-10-11T13:46:12.657Z,21.74
2022-10-11T13:47:16.844Z,21.74
2022-10-11T13:48:21.004Z,21.74
2022-10-11T13:49:25.171Z,21.76
2022-10-11T13:50:29.317Z,21.73
2022-10-11T13:51:33.882Z,21.77
2022-10-11T13:52:38.066Z,21.71
2022-10-11T13:53:42.213Z,21.73
2022-10-11T13:54:46.325Z,21.7
2022-10-11T13:55:50.481Z,21.5
2022-10-11T13:56:54.642Z,21.7
2022-10-11T13:57:58.798Z,21.73
2022-10-11T13:59:02.934Z,21.7
2022-10-11T14:00:07.131Z,21.72
2022-10-11T14:01:11.434Z,21.74
2022-10-11T14:02:15.731Z,21.74
2022-10-11T14:03:19.854Z,21.75
2022-10-11T14:04:27.324Z,21.69
2022-10-11T14:05:33.738Z,21.72
2022-10-11T14:06:38.126Z,21.72
2022-10-11T14:07:42.293Z,21.72
2022-10-11T14:08:46.602Z,21.72
2022-10-11T14:09:50.891Z,21.72
2022-10-11T14:10:57.344Z,21.72
2022-10-11T14:12:09.462Z,21.73
2022-10-11T14:13:13.616Z,21.73
2022-10-11T14:14:17.781Z,21.75
2022-10-11T14:15:21.914Z,21.74
2022-10-11T14:16:26.060Z,21.75
2022-10-11T14:17:30.219Z,21.76
2022-10-11T14:18:34.381Z,21.78
2022-10-11T14:19:38.505Z,21.78
2022-10-11T14:20:42.670Z,21.75
2022-10-11T14:21:46.812Z,21.75
2022-10-11T14:22:50.986Z,21.77
2022-10-11T14:23:55.099Z,21.77
2022-10-11T14:24:59.227Z,21.77
2022-10-11T14:26:03.672Z,21.74
2022-10-11T14:27:09.028Z,21.76
2022-10-11T14:28:13.234Z,21.76
2022-10-11T14:29:17.501Z,21.53
2022-10-11T14:30:26.907Z,21.8
2022-10-11T14:31:31.463Z,21.53
2022-10-11T14:32:39.046Z,21.81
2022-10-11T14:33:43.185Z,21.8
2022-10-11T14:34:47.335Z,21.78
2022-10-11T14:35:51.459Z,21.76